Time;durP1;ratioP1;P1;durP2;ratioP2;P2;SDS_P1;SDS_P2;PMS_P1;PMS_P2;Temp;Humidity;BMP_temperature;BMP_pressure;BME280_temperature;BME280_humidity;BME280_pressure;Samples;Min_cycle;Max_cycle;Signal;HPM_P1;HPM_P2
2022/08/03 00:01:19;;;;;;;;;;;20.10;99.90;;;;;;5092496;28;20454;-73
2022/08/03 00:03:45;;;;;;;;;;;20.00;99.90;;;;;;5093079;28;20062;-71
2022/08/03 00:06:10;;;;;;;;;;;20.00;99.90;;;;;;5077379;28;19927;-71
2022/08/03 00:08:36;;;;;;;;;;;20.00;99.90;;;;;;5081288;28;20348;-71
2022/08/03 00:11:01;;;;;;;;;;;20.00;99.90;;;;;;5092658;28;19942;-72
2022/08/03 00:13:27;;;;;;;;;;;20.00;99.90;;;;;;5092745;28;19972;-71
2022/08/03 00:15:54;;;;;;;;;;;20.00;99.90;;;;;;5090957;28;19955;-71
2022/08/03 00:18:20;;;;;;;;;;;19.90;99.90;;;;;;5073045;28;19994;-72
2022/08/03 00:20:45;;;;;;;;;;;19.90;99.90;;;;;;5074921;28;20386;-71
2022/08/03 00:23:11;;;;;;;;;;;19.90;99.90;;;;;;5092267;28;20006;-72
2022/08/03 00:25:37;;;;;;;;;;;19.90;99.90;;;;;;5090251;28;19965;-71
2022/08/03 00:28:03;;;;;;;;;;;19.90;99.90;;;;;;5084386;28;19995;-71
2022/08/03 00:30:29;;;;;;;;;;;19.80;99.90;;;;;;5072637;28;19924;-71
2022/08/03 00:32:55;;;;;;;;;;;19.80;99.90;;;;;;5080830;28;20332;-71
2022/08/03 00:35:20;;;;;;;;;;;19.80;99.90;;;;;;5091974;28;19958;-71
2022/08/03 00:37:46;;;;;;;;;;;19.80;99.90;;;;;;5084074;28;19974;-71
2022/08/03 00:40:13;;;;;;;;;;;19.70;99.90;;;;;;5086953;28;19973;-71
2022/08/03 00:42:46;;;;;;;;;;;19.70;99.90;;;;;;5073911;28;20391;-72
2022/08/03 00:45:11;;;;;;;;;;;19.80;99.90;;;;;;5088364;28;20010;-72
2022/08/03 00:47:37;;;;;;;;;;;19.70;99.90;;;;;;5082270;28;20003;-71
2022/08/03 00:50:02;;;;;;;;;;;19.70;99.90;;;;;;5091637;28;20403;-73
2022/08/03 00:52:28;;;;;;;;;;;19.70;99.90;;;;;;5082617;28;19973;-73
2022/08/03 00:54:54;;;;;;;;;;;19.80;99.90;;;;;;5088407;28;19924;-72
2022/08/03 00:57:19;;;;;;;;;;;19.80;99.90;;;;;;5082887;28;19967;-71
2022/08/03 00:59:45;;;;;;;;;;;19.80;99.90;;;;;;5072789;28;20045;-71
2022/08/03 01:02:10;;;;;;;;;;;19.80;99.90;;;;;;5072074;28;19924;-72
2022/08/03 01:04:36;;;;;;;;;;;19.70;99.90;;;;;;5071807;28;20461;-72
2022/08/03 01:07:13;;;;;;;;;;;19.70;99.90;;;;;;5081446;28;19920;-71
2022/08/03 01:09:41;;;;;;;;;;;19.70;99.90;;;;;;5091304;28;19920;-72
2022/08/03 01:12:21;;;;;;;;;;;19.70;99.90;;;;;;5079950;28;19928;-72
2022/08/03 01:14:52;;;;;;;;;;;19.70;99.90;;;;;;5091081;28;19920;-71
2022/08/03 01:17:22;;;;;;;;;;;19.70;99.90;;;;;;5078080;28;19920;-71
2022/08/03 01:19:47;;;;;;;;;;;19.70;99.90;;;;;;5083986;28;19929;-72
2022/08/03 01:22:46;;;;;;;;;;;19.60;99.90;;;;;;5071237;28;19924;-72
2022/08/03 01:25:11;;;;;;;;;;;19.60;99.90;;;;;;5028294;28;19920;-72
2022/08/03 01:27:57;;;;;;;;;;;19.60;99.90;;;;;;5090787;28;20396;-71
2022/08/03 01:30:26;;;;;;;;;;;19.60;99.90;;;;;;5039623;28;19927;-72
2022/08/03 01:33:01;;;;;;;;;;;19.50;99.90;;;;;;5091037;28;19924;-72
2022/08/03 01:35:30;;;;;;;;;;;19.50;99.90;;;;;;5090826;28;20020;-72
2022/08/03 01:37:57;;;;;;;;;;;19.50;99.90;;;;;;5090926;28;20049;-72
2022/08/03 01:40:24;;;;;;;;;;;19.50;99.90;;;;;;5090228;28;20386;-72
2022/08/03 01:42:51;;;;;;;;;;;19.50;99.90;;;;;;5091142;28;20017;-71
2022/08/03 01:45:17;;;;;;;;;;;19.40;99.90;;;;;;5090798;28;19923;-71
2022/08/03 01:47:44;;;;;;;;;;;19.40;99.90;;;;;;5091233;28;19920;-72
2022/08/03 01:50:10;;;;;;;;;;;19.40;99.90;;;;;;5089852;28;19983;-72
2022/08/03 01:52:37;;;;;;;;;;;19.30;99.90;;;;;;5090802;28;19930;-71
2022/08/03 01:55:04;;;;;;;;;;;19.40;99.90;;;;;;5089563;28;19920;-71
2022/08/03 01:57:29;;;;;;;;;;;19.30;99.90;;;;;;5090769;28;20310;-71
2022/08/03 01:59:56;;;;;;;;;;;19.40;99.90;;;;;;5090649;28;19920;-72
2022/08/03 02:02:22;;;;;;;;;;;19.30;99.90;;;;;;5090664;28;19927;-73
2022/08/03 02:04:49;;;;;;;;;;;19.30;99.90;;;;;;5077364;28;19927;-72
2022/08/03 02:07:15;;;;;;;;;;;19.30;99.90;;;;;;5078900;28;19950;-71
2022/08/03 02:09:42;;;;;;;;;;;19.20;99.90;;;;;;5083809;28;19920;-72
2022/08/03 02:12:08;;;;;;;;;;;19.20;99.90;;;;;;5081700;28;19926;-72
2022/08/03 02:14:34;;;;;;;;;;;19.20;99.90;;;;;;5072280;28;19920;-72
2022/08/03 02:17:00;;;;;;;;;;;19.20;99.90;;;;;;5068644;28;20487;-72
2022/08/03 02:19:26;;;;;;;;;;;19.10;99.90;;;;;;5089504;28;20415;-72
2022/08/03 02:21:52;;;;;;;;;;;19.10;99.90;;;;;;5084947;28;19943;-72
2022/08/03 02:24:17;;;;;;;;;;;19.10;99.90;;;;;;5090255;28;19920;-72
2022/08/03 02:26:44;;;;;;;;;;;19.10;99.90;;;;;;5090301;28;19920;-72
2022/08/03 02:29:12;;;;;;;;;;;19.10;99.90;;;;;;5089882;28;19926;-73
2022/08/03 02:31:38;;;;;;;;;;;19.10;99.90;;;;;;5090516;28;19920;-72
2022/08/03 02:34:07;;;;;;;;;;;19.00;99.90;;;;;;5076354;28;19948;-72
2022/08/03 02:36:35;;;;;;;;;;;19.00;99.90;;;;;;5090125;28;19927;-72
2022/08/03 02:39:02;;;;;;;;;;;19.00;99.90;;;;;;5089442;28;20422;-72
2022/08/03 02:41:48;;;;;;;;;;;19.00;99.90;;;;;;5089626;28;19958;-72
2022/08/03 02:44:16;;;;;;;;;;;19.00;99.90;;;;;;5083887;28;20042;-71
2022/08/03 02:46:43;;;;;;;;;;;19.00;99.90;;;;;;5081958;28;19920;-72
2022/08/03 02:49:10;;;;;;;;;;;19.00;99.90;;;;;;5089337;28;19919;-72
2022/08/03 02:51:36;;;;;;;;;;;18.90;99.90;;;;;;5089683;28;19924;-72
2022/08/03 02:54:03;;;;;;;;;;;18.90;99.90;;;;;;5089981;28;19920;-73
2022/08/03 02:56:28;;;;;;;;;;;18.90;99.90;;;;;;5084799;28;19921;-72
2022/08/03 02:58:55;;;;;;;;;;;18.90;99.90;;;;;;5081681;28;19920;-72
2022/08/03 03:01:21;;;;;;;;;;;18.90;99.90;;;;;;5088911;28;19924;-72
2022/08/03 03:03:48;;;;;;;;;;;18.90;99.90;;;;;;5089873;28;20498;-71
2022/08/03 03:06:15;;;;;;;;;;;18.90;99.90;;;;;;5088023;28;19920;-72
2022/08/03 03:08:41;;;;;;;;;;;18.80;99.90;;;;;;5089600;28;19926;-72
2022/08/03 03:11:07;;;;;;;;;;;18.80;99.90;;;;;;5088223;28;19919;-72
2022/08/03 03:13:32;;;;;;;;;;;18.80;99.90;;;;;;5089744;28;19973;-72
2022/08/03 03:16:00;;;;;;;;;;;18.80;99.90;;;;;;5088366;28;19924;-72
2022/08/03 03:18:30;;;;;;;;;;;18.80;99.90;;;;;;5088002;28;19939;-72
2022/08/03 03:20:56;;;;;;;;;;;18.80;99.90;;;;;;5088545;28;19967;-72
2022/08/03 03:23:23;;;;;;;;;;;18.80;99.90;;;;;;5089264;28;19920;-71
2022/08/03 03:25:50;;;;;;;;;;;18.70;99.90;;;;;;5088127;28;20382;-72
2022/08/03 03:28:15;;;;;;;;;;;18.70;99.90;;;;;;5088658;28;19924;-72
2022/08/03 03:30:41;;;;;;;;;;;18.70;99.90;;;;;;5089138;28;19920;-72
2022/08/03 03:33:07;;;;;;;;;;;18.70;99.90;;;;;;5077200;28;20729;-72
2022/08/03 03:35:33;;;;;;;;;;;18.70;99.90;;;;;;5092602;28;19967;-72
2022/08/03 03:37:59;;;;;;;;;;;18.70;99.90;;;;;;5081173;28;20298;-72
2022/08/03 03:40:24;;;;;;;;;;;18.70;99.90;;;;;;5087010;28;19931;-72
2022/08/03 03:42:50;;;;;;;;;;;18.70;99.90;;;;;;5073754;28;19973;-72
2022/08/03 03:45:16;;;;;;;;;;;18.70;99.90;;;;;;5079195;28;19955;-72
2022/08/03 03:47:42;;;;;;;;;;;18.70;99.90;;;;;;5093584;28;19920;-72
2022/08/03 03:50:09;;;;;;;;;;;18.70;99.90;;;;;;5093111;28;19942;-72
2022/08/03 03:52:35;;;;;;;;;;;18.60;99.90;;;;;;5093313;28;19924;-72
2022/08/03 03:55:00;;;;;;;;;;;18.70;99.90;;;;;;5092310;28;20344;-72
2022/08/03 03:57:26;;;;;;;;;;;18.70;99.90;;;;;;5093152;28;20014;-72
2022/08/03 03:59:52;;;;;;;;;;;18.70;99.90;;;;;;5074217;28;19921;-72
2022/08/03 04:02:17;;;;;;;;;;;18.70;99.90;;;;;;5072908;28;19924;-72
2022/08/03 04:13:02;;;;;;;;;;;18.70;99.90;;;;;;5092277;28;19920;-72
2022/08/03 04:15:30;;;;;;;;;;;18.60;99.90;;;;;;5091993;28;19920;-72
2022/08/03 04:17:56;;;;;;;;;;;18.60;99.90;;;;;;5081129;28;20016;-72
2022/08/03 04:20:22;;;;;;;;;;;18.60;99.90;;;;;;5079625;28;20734;-72
2022/08/03 04:22:50;;;;;;;;;;;18.60;99.90;;;;;;5085401;28;20007;-72
2022/08/03 04:25:18;;;;;;;;;;;18.60;99.90;;;;;;5087333;28;20499;-72
2022/08/03 04:27:45;;;;;;;;;;;18.60;99.90;;;;;;5092832;28;19923;-72
2022/08/03 04:30:10;;;;;;;;;;;18.60;99.90;;;;;;5091798;28;20396;-72
2022/08/03 04:32:37;;;;;;;;;;;18.60;99.90;;;;;;5074264;28;20764;-72
2022/08/03 04:35:03;;;;;;;;;;;18.70;99.90;;;;;;5092081;28;20272;-72
2022/08/03 04:37:34;;;;;;;;;;;18.70;99.90;;;;;;5091961;28;19953;-72
2022/08/03 04:40:01;;;;;;;;;;;18.70;99.90;;;;;;5091494;28;20321;-72
2022/08/03 04:42:27;;;;;;;;;;;18.70;99.90;;;;;;5073961;28;19924;-72
2022/08/03 04:44:54;;;;;;;;;;;18.80;99.90;;;;;;5090686;28;20366;-72
2022/08/03 04:47:19;;;;;;;;;;;18.80;99.90;;;;;;5091329;28;19927;-72
2022/08/03 04:49:45;;;;;;;;;;;18.80;99.90;;;;;;5091612;28;19972;-72
2022/08/03 04:52:11;;;;;;;;;;;18.80;99.90;;;;;;5092075;28;20497;-72
2022/08/03 04:54:40;;;;;;;;;;;18.90;99.90;;;;;;5090799;28;19920;-72
2022/08/03 04:57:05;;;;;;;;;;;18.90;99.90;;;;;;5092050;28;19973;-72
2022/08/03 04:59:31;;;;;;;;;;;18.90;99.90;;;;;;5089042;28;19921;-72
2022/08/03 05:01:57;;;;;;;;;;;19.00;99.90;;;;;;5091009;28;19920;-72
2022/08/03 05:04:22;;;;;;;;;;;19.00;99.90;;;;;;5072269;28;19928;-72
2022/08/03 05:06:48;;;;;;;;;;;19.10;99.90;;;;;;5090842;28;19920;-72
2022/08/03 05:09:13;;;;;;;;;;;19.10;99.90;;;;;;5091559;28;19960;-72
2022/08/03 05:11:39;;;;;;;;;;;19.20;99.90;;;;;;5090716;28;19920;-72
2022/08/03 05:14:04;;;;;;;;;;;19.20;99.90;;;;;;5091046;28;20019;-72
2022/08/03 05:16:30;;;;;;;;;;;19.20;99.90;;;;;;5090588;28;20375;-72
2022/08/03 05:18:56;;;;;;;;;;;19.30;99.90;;;;;;5090451;28;19925;-71
2022/08/03 05:21:21;;;;;;;;;;;19.30;99.90;;;;;;5091010;28;19931;-72
2022/08/03 05:23:46;;;;;;;;;;;19.30;99.90;;;;;;5090383;28;20357;-72
2022/08/03 05:26:12;;;;;;;;;;;19.30;99.90;;;;;;5090306;28;19920;-72
2022/08/03 05:28:38;;;;;;;;;;;19.30;99.90;;;;;;5089238;28;19920;-73
2022/08/03 05:31:04;;;;;;;;;;;19.40;99.90;;;;;;5080037;28;19955;-72
2022/08/03 05:33:29;;;;;;;;;;;19.40;99.90;;;;;;5089311;28;20326;-72
2022/08/03 05:35:55;;;;;;;;;;;19.50;99.90;;;;;;5080013;28;19924;-72
2022/08/03 05:38:20;;;;;;;;;;;19.50;99.90;;;;;;5087196;28;19928;-71
2022/08/03 05:40:46;;;;;;;;;;;19.50;99.90;;;;;;5083871;28;20214;-71
2022/08/03 05:43:11;;;;;;;;;;;19.60;99.90;;;;;;5086093;28;20005;-71
2022/08/03 05:45:37;;;;;;;;;;;19.60;99.90;;;;;;5091161;28;20065;-72
2022/08/03 05:48:03;;;;;;;;;;;19.60;99.90;;;;;;5080737;28;19971;-72
2022/08/03 05:50:29;;;;;;;;;;;19.70;99.90;;;;;;5073964;28;20731;-72
2022/08/03 05:52:56;;;;;;;;;;;19.70;99.90;;;;;;5085610;28;20031;-72
2022/08/03 05:55:22;;;;;;;;;;;19.80;99.90;;;;;;5090966;28;19959;-72
2022/08/03 05:57:47;;;;;;;;;;;19.80;99.90;;;;;;5076959;28;20048;-72
2022/08/03 06:00:13;;;;;;;;;;;19.80;99.90;;;;;;5079476;28;20446;-73
2022/08/03 06:02:38;;;;;;;;;;;19.90;99.90;;;;;;5090152;28;19919;-73
2022/08/03 06:05:04;;;;;;;;;;;19.90;99.90;;;;;;5090207;28;20020;-73
2022/08/03 06:07:30;;;;;;;;;;;20.00;99.90;;;;;;5076727;28;19931;-72
2022/08/03 06:09:56;;;;;;;;;;;20.00;99.90;;;;;;5079710;28;20061;-73
2022/08/03 06:12:21;;;;;;;;;;;20.10;99.90;;;;;;5076732;28;19938;-72
2022/08/03 06:14:46;;;;;;;;;;;20.10;99.90;;;;;;5088925;28;19920;-73
2022/08/03 06:17:12;;;;;;;;;;;20.10;99.90;;;;;;5089389;28;19920;-73
2022/08/03 06:19:37;;;;;;;;;;;20.20;99.90;;;;;;5081923;28;19927;-72
2022/08/03 06:22:03;;;;;;;;;;;20.20;99.90;;;;;;5071794;28;19944;-72
2022/08/03 06:24:29;;;;;;;;;;;20.20;99.90;;;;;;5053340;28;20399;-73
2022/08/03 06:26:54;;;;;;;;;;;20.30;99.90;;;;;;5067194;28;19973;-72
2022/08/03 06:29:20;;;;;;;;;;;20.40;99.90;;;;;;5089815;28;19932;-72
2022/08/03 06:31:45;;;;;;;;;;;20.40;99.90;;;;;;5089907;28;20405;-73
2022/08/03 06:34:11;;;;;;;;;;;20.40;99.90;;;;;;5090052;28;19920;-72
2022/08/03 06:36:36;;;;;;;;;;;20.50;99.90;;;;;;5072062;28;20437;-73
2022/08/03 06:39:02;;;;;;;;;;;20.50;99.90;;;;;;5089724;28;19965;-72
2022/08/03 06:41:27;;;;;;;;;;;20.50;99.90;;;;;;5089612;28;19924;-72
2022/08/03 06:43:53;;;;;;;;;;;20.60;99.90;;;;;;5090038;28;19921;-72
2022/08/03 06:46:19;;;;;;;;;;;20.60;99.90;;;;;;5089334;28;20014;-72
2022/08/03 06:48:45;;;;;;;;;;;20.70;99.90;;;;;;5089702;28;20015;-73
2022/08/03 06:51:10;;;;;;;;;;;20.70;99.90;;;;;;5089431;28;19920;-72
2022/08/03 06:53:36;;;;;;;;;;;20.70;99.90;;;;;;5089386;28;19927;-72
2022/08/03 06:56:03;;;;;;;;;;;20.80;99.90;;;;;;5088882;28;19927;-73
2022/08/03 06:58:28;;;;;;;;;;;20.80;99.90;;;;;;5090233;28;19974;-72
2022/08/03 07:00:54;;;;;;;;;;;20.80;99.90;;;;;;5089606;28;19963;-72
2022/08/03 07:03:19;;;;;;;;;;;20.90;99.90;;;;;;5089727;28;20014;-73
2022/08/03 07:05:48;;;;;;;;;;;21.00;99.90;;;;;;5089678;28;20007;-72
2022/08/03 07:08:14;;;;;;;;;;;21.00;99.90;;;;;;5088955;28;19920;-72
2022/08/03 07:10:39;;;;;;;;;;;21.10;99.90;;;;;;5075961;28;19927;-72
2022/08/03 07:13:05;;;;;;;;;;;21.20;99.90;;;;;;5071862;28;20270;-73
2022/08/03 07:15:31;;;;;;;;;;;21.20;99.90;;;;;;5088945;28;20381;-72
2022/08/03 07:17:56;;;;;;;;;;;21.20;99.90;;;;;;5081595;28;19925;-72
2022/08/03 07:20:22;;;;;;;;;;;21.30;99.90;;;;;;5083625;28;20328;-72
2022/08/03 07:22:48;;;;;;;;;;;21.40;99.90;;;;;;5088870;28;19928;-73
2022/08/03 07:25:14;;;;;;;;;;;21.40;99.90;;;;;;5087892;28;19920;-72
2022/08/03 07:27:43;;;;;;;;;;;21.50;99.90;;;;;;5089589;28;19927;-72
2022/08/03 07:30:08;;;;;;;;;;;21.60;99.90;;;;;;5089093;28;20401;-73
2022/08/03 07:32:34;;;;;;;;;;;21.60;99.90;;;;;;5089732;28;19920;-73
2022/08/03 07:35:00;;;;;;;;;;;21.70;99.90;;;;;;5088619;28;19920;-73
2022/08/03 07:37:25;;;;;;;;;;;21.70;99.90;;;;;;5089369;28;19924;-73
2022/08/03 07:39:51;;;;;;;;;;;21.80;99.90;;;;;;5088759;28;20348;-72
2022/08/03 07:42:16;;;;;;;;;;;21.90;99.90;;;;;;5088978;28;19920;-72
2022/08/03 07:44:42;;;;;;;;;;;21.90;99.90;;;;;;5088345;28;20297;-73
2022/08/03 07:47:07;;;;;;;;;;;22.00;99.90;;;;;;5087582;28;19965;-72
2022/08/03 07:49:37;;;;;;;;;;;22.10;99.90;;;;;;5087814;28;19923;-72
2022/08/03 07:54:47;;;;;;;;;;;22.20;99.90;;;;;;5089130;28;19970;-73
2022/08/03 07:57:12;;;;;;;;;;;22.30;99.90;;;;;;5088701;28;20382;-72
2022/08/03 07:59:38;;;;;;;;;;;22.40;99.90;;;;;;5089050;28;19920;-72
2022/08/03 08:02:05;;;;;;;;;;;22.40;99.90;;;;;;5089064;28;19919;-72
2022/08/03 08:04:30;;;;;;;;;;;22.50;99.90;;;;;;5075355;28;19931;-72
2022/08/03 08:06:56;;;;;;;;;;;22.50;99.90;;;;;;5089232;28;20328;-72
2022/08/03 08:09:22;;;;;;;;;;;22.60;99.90;;;;;;5088629;28;19924;-72
2022/08/03 08:11:48;;;;;;;;;;;22.70;99.90;;;;;;5088772;28;19927;-72
2022/08/03 08:14:13;;;;;;;;;;;22.70;99.90;;;;;;5087609;28;19928;-72
2022/08/03 08:16:39;;;;;;;;;;;22.80;99.90;;;;;;5088405;28;19926;-72
2022/08/03 08:19:04;;;;;;;;;;;22.90;99.90;;;;;;5069734;28;20011;-72
2022/08/03 08:21:30;;;;;;;;;;;22.90;99.90;;;;;;5091945;28;20267;-72
2022/08/03 08:23:55;;;;;;;;;;;23.00;99.90;;;;;;5091883;28;19932;-73
2022/08/03 08:26:21;;;;;;;;;;;23.10;99.90;;;;;;5091323;28;19924;-72
2022/08/03 08:28:46;;;;;;;;;;;23.20;99.90;;;;;;5075923;28;19920;-72
2022/08/03 08:31:12;;;;;;;;;;;23.20;99.90;;;;;;5072479;28;19920;-72
2022/08/03 08:33:38;;;;;;;;;;;23.30;99.90;;;;;;5088806;28;19931;-72
2022/08/03 08:36:03;;;;;;;;;;;23.40;99.90;;;;;;5082748;28;19927;-73
2022/08/03 08:38:29;;;;;;;;;;;23.40;99.90;;;;;;5088659;28;19920;-72
2022/08/03 08:40:54;;;;;;;;;;;23.50;99.90;;;;;;5091909;28;20297;-73
2022/08/03 08:43:20;;;;;;;;;;;23.50;99.90;;;;;;5089271;28;19928;-73
2022/08/03 08:45:48;;;;;;;;;;;23.50;99.90;;;;;;5081935;28;19919;-72
2022/08/03 08:48:14;;;;;;;;;;;23.60;99.90;;;;;;5091816;28;19920;-73
2022/08/03 08:50:40;;;;;;;;;;;23.60;99.90;;;;;;5092159;28;20453;-73
2022/08/03 08:53:06;;;;;;;;;;;23.70;99.90;;;;;;5091616;28;20364;-73
2022/08/03 08:55:33;;;;;;;;;;;23.80;99.90;;;;;;5073605;28;20382;-72
2022/08/03 08:58:01;;;;;;;;;;;23.90;99.90;;;;;;5091544;28;19973;-72
2022/08/03 09:00:26;;;;;;;;;;;23.90;99.90;;;;;;5091927;28;19927;-73
2022/08/03 09:02:52;;;;;;;;;;;24.00;99.90;;;;;;5090994;28;20309;-72
2022/08/03 09:05:18;;;;;;;;;;;24.10;99.90;;;;;;5091101;28;19920;-72
2022/08/03 09:07:44;;;;;;;;;;;24.10;99.90;;;;;;5090413;28;20434;-72
2022/08/03 09:10:10;;;;;;;;;;;24.20;99.90;;;;;;5091672;28;19934;-73
2022/08/03 09:12:43;;;;;;;;;;;24.20;99.90;;;;;;5090978;28;19924;-73
2022/08/03 09:15:27;;;;;;;;;;;24.30;99.90;;;;;;5090907;28;19920;-72
2022/08/03 09:17:53;;;;;;;;;;;24.40;99.90;;;;;;5091534;28;19977;-73
2022/08/03 09:20:19;;;;;;;;;;;24.40;99.90;;;;;;5091655;28;20596;-72
2022/08/03 09:22:58;;;;;;;;;;;24.60;99.90;;;;;;5079074;28;19920;-72
2022/08/03 09:25:34;;;;;;;;;;;24.90;99.90;;;;;;5090290;28;19987;-73
2022/08/03 09:28:04;;;;;;;;;;;25.00;99.90;;;;;;5081541;28;19920;-73
2022/08/03 09:30:30;;;;;;;;;;;25.20;99.90;;;;;;5071056;28;20003;-73
2022/08/03 09:32:59;;;;;;;;;;;25.30;99.90;;;;;;5071183;28;20011;-72
2022/08/03 09:35:28;;;;;;;;;;;25.50;99.90;;;;;;5084652;28;19978;-73
2022/08/03 09:38:12;;;;;;;;;;;25.70;99.90;;;;;;5083366;28;19927;-74
2022/08/03 09:40:39;;;;;;;5.15;1.63;;;26.00;99.90;;;;;;5078301;28;19920;-73
2022/08/03 09:43:06;;;;;;;9.50;2.47;;;26.30;99.90;;;;;;5090441;28;20063;-73
2022/08/03 09:45:33;;;;;;;5.32;1.45;;;26.80;99.90;;;;;;5090555;28;20048;-73
2022/08/03 09:48:23;;;;;;;7.97;2.08;;;27.30;99.90;;;;;;5072425;28;20551;-73
2022/08/03 09:50:49;;;;;;;8.23;2.33;;;27.60;99.90;;;;;;5090431;28;20044;-72
2022/08/03 09:53:16;;;;;;;12.98;1.80;;;27.90;99.90;;;;;;5089695;28;20048;-73
2022/08/03 09:55:49;;;;;;;;;;;28.10;99.90;;;;;;5091145;28;20063;-73
2022/08/03 09:58:14;;;;;;;6.00;1.92;;;28.20;99.90;;;;;;5070658;28;20307;-72
2022/08/03 10:00:58;;;;;;;7.32;2.13;;;28.40;99.90;;;;;;5083186;28;20050;-73
2022/08/03 10:03:26;;;;;;;7.70;1.88;;;28.60;99.90;;;;;;5070499;28;20049;-73
2022/08/03 10:05:53;;;;;;;9.63;2.10;;;28.70;99.90;;;;;;5072166;28;20044;-70
2022/08/03 10:08:19;;;;;;;5.15;1.40;;;28.90;99.90;;;;;;5090118;28;20127;-70
2022/08/03 10:10:47;;;;;;;8.15;1.90;;;28.90;99.90;;;;;;5075178;28;20854;-70
2022/08/03 10:13:15;;;;;;;8.03;2.20;;;28.90;99.90;;;;;;5088949;28;20434;-71
2022/08/03 10:15:40;;;;;;;6.13;1.40;;;28.90;99.90;;;;;;5076609;28;20044;-70
2022/08/03 10:18:06;;;;;;;;;;;28.90;99.90;;;;;;5090345;28;20093;-70
2022/08/03 10:20:35;;;;;;;;;;;28.70;99.90;;;;;;5076570;28;19928;-70
2022/08/03 10:23:02;;;;;;;;;;;28.50;99.70;;;;;;5090630;28;20323;-70
2022/08/03 10:25:29;;;;;;;;;;;28.30;99.90;;;;;;5071877;28;20370;-70
2022/08/03 10:27:55;;;;;;;;;;;28.00;99.90;;;;;;5090550;28;19926;-70
2022/08/03 10:30:21;;;;;;;;;;;27.80;99.90;;;;;;5087468;28;19931;-70
2022/08/03 10:33:00;;;;;;;;;;;27.70;99.90;;;;;;5079934;28;19920;-70
2022/08/03 10:35:26;;;;;;;11.38;2.05;;;27.90;99.90;;;;;;5089409;28;20382;-70
2022/08/03 10:37:59;;;;;;;;;;;28.30;99.90;;;;;;5090099;28;20410;-70
2022/08/03 10:40:28;;;;;;;10.48;2.38;;;28.30;99.90;;;;;;5088385;28;19927;-70
2022/08/03 10:42:55;;;;;;;;;;;28.60;99.90;;;;;;5070890;28;20060;-70
2022/08/03 10:45:24;;;;;;;6.93;1.90;;;28.90;99.60;;;;;;5087974;28;19975;-70
2022/08/03 10:47:51;;;;;;;9.13;2.08;;;29.00;99.30;;;;;;5088298;28;20884;-73
2022/08/03 10:50:18;;;;;;;7.87;2.40;;;28.90;98.50;;;;;;5075265;28;20398;-73
2022/08/03 10:52:57;;;;;;;8.33;2.37;;;28.60;98.50;;;;;;5087458;28;20807;-71
2022/08/03 10:58:36;;;;;;;9.93;2.20;;;28.30;99.30;;;;;;5080517;28;20400;-73
2022/08/03 11:01:03;;;;;;;9.75;2.30;;;28.20;99.40;;;;;;5070044;28;20411;-73
2022/08/03 11:03:28;;;;;;;10.27;2.30;;;28.20;99.10;;;;;;5088165;28;20455;-73
2022/08/03 11:06:15;;;;;;;7.45;1.75;;;28.30;99.10;;;;;;5087719;28;20425;-73
2022/08/03 11:08:41;;;;;;;10.18;2.58;;;28.50;99.10;;;;;;5088425;28;20433;-72
2022/08/03 11:11:18;;;;;;;8.37;2.00;;;28.60;98.20;;;;;;5087277;28;20425;-73
2022/08/03 11:14:04;;;;;;;6.43;1.60;;;28.70;98.30;;;;;;5087988;28;20398;-73
2022/08/03 11:16:36;;;;;;;8.93;2.53;;;28.70;98.30;;;;;;5067108;28;20464;-73
2022/08/03 11:19:05;;;;;;;7.55;1.77;;;28.80;98.20;;;;;;5070297;28;20402;-72
2022/08/03 11:21:49;;;;;;;8.00;1.85;;;28.80;98.30;;;;;;5087425;28;21155;-72
2022/08/03 11:24:33;;;;;;;8.10;1.80;;;28.90;98.40;;;;;;5087220;28;20421;-73
2022/08/03 11:27:16;;;;;;;7.50;1.83;;;29.10;98.00;;;;;;5087711;28;20406;-70
2022/08/03 11:29:58;;;;;;;14.25;2.75;;;29.50;98.40;;;;;;5078402;28;20388;-70
2022/08/03 11:32:39;;;;;;;7.78;1.67;;;30.00;97.20;;;;;;5088812;28;20141;-70
2022/08/03 11:35:22;;;;;;;9.95;1.85;;;30.50;96.40;;;;;;5075389;28;20453;-72
2022/08/03 11:37:57;;;;;;;8.73;1.70;;;30.90;96.40;;;;;;5077975;28;20048;-70
2022/08/03 11:40:34;;;;;;;8.32;1.40;;;31.40;96.10;;;;;;5074186;28;20517;-70
2022/08/03 11:43:00;;;;;;;6.00;1.42;;;31.90;94.90;;;;;;5088220;28;20351;-70
2022/08/03 11:45:26;;;;;;;10.30;1.95;;;32.00;94.20;;;;;;5088730;28;20418;-70
2022/08/03 11:47:53;;;;;;;4.75;1.33;;;32.00;93.60;;;;;;5088904;28;20047;-70
2022/08/03 11:50:20;;;;;;;10.20;2.17;;;32.10;93.50;;;;;;5068416;28;20092;-73
2022/08/03 11:52:46;;;;;;;11.73;1.77;;;32.10;93.40;;;;;;5082339;28;20055;-71
2022/08/03 11:55:13;;;;;;;6.75;1.45;;;32.30;93.70;;;;;;5084457;28;20087;-72
2022/08/03 11:57:39;;;;;;;9.55;1.52;;;32.50;92.70;;;;;;5086686;28;20043;-70
2022/08/03 12:00:24;;;;;;;7.70;1.48;;;32.70;92.30;;;;;;5085401;28;20112;-71
2022/08/03 12:03:02;;;;;;;10.48;2.45;;;32.90;92.10;;;;;;5089274;28;20131;-71
2022/08/03 12:05:44;;;;;;;7.15;1.38;;;32.90;90.90;;;;;;5092096;28;20054;-71
2022/08/03 12:08:11;;;;;;;5.53;1.95;;;33.00;90.20;;;;;;5085303;28;20517;-71
2022/08/03 12:10:38;;;;;;;6.57;1.30;;;33.20;90.80;;;;;;5085771;28;20048;-71
2022/08/03 12:13:07;;;;;;;6.75;2.13;;;33.40;90.50;;;;;;5091722;28;20044;-70
2022/08/03 12:15:35;;;;;;;11.98;1.85;;;33.40;89.70;;;;;;5079567;28;20056;-71
2022/08/03 12:18:16;;;;;;;9.57;1.80;;;33.50;88.00;;;;;;5084424;28;20048;-72
2022/08/03 12:20:43;;;;;;;9.93;1.77;;;33.50;87.10;;;;;;5055844;28;20541;-71
2022/08/03 12:23:09;;;;;;;12.18;2.33;;;33.60;87.40;;;;;;5082564;28;20052;-71
2022/08/03 12:25:37;;;;;;;10.68;1.75;;;33.70;86.90;;;;;;5091421;28;20607;-71
2022/08/03 12:28:07;;;;;;;14.18;2.47;;;33.80;86.30;;;;;;5092014;28;20069;-71
2022/08/03 12:30:33;;;;;;;8.73;2.00;;;33.80;82.40;;;;;;5091639;28;20044;-71
2022/08/03 12:32:58;;;;;;;;;;;33.80;80.00;;;;;;5092664;28;20048;-72
2022/08/03 12:35:24;;;;;;;7.70;1.45;;;33.60;79.40;;;;;;5091754;28;20382;-71
2022/08/03 12:37:51;;;;;;;9.48;1.77;;;33.60;81.90;;;;;;5090861;28;20402;-71
2022/08/03 12:40:26;;;;;;;10.23;2.08;;;33.80;82.00;;;;;;5090985;28;20501;-71
2022/08/03 12:42:52;;;;;;;7.60;1.60;;;33.90;80.00;;;;;;5091231;28;20112;-71
2022/08/03 12:45:25;;;;;;;9.52;1.83;;;34.00;79.90;;;;;;5090050;28;20047;-71
2022/08/03 12:48:01;;;;;;;12.48;1.75;;;34.20;79.20;;;;;;5091490;28;20044;-71
2022/08/03 12:50:34;;;;;;;11.23;1.85;;;34.50;78.10;;;;;;5091784;28;20105;-71
2022/08/03 12:53:03;;;;;;;10.48;1.75;;;34.60;77.00;;;;;;5091051;28;20102;-71
2022/08/03 12:55:32;;;;;;;6.85;1.75;;;34.60;77.50;;;;;;5091742;28;20138;-71
2022/08/03 12:58:02;;;;;;;8.52;1.63;;;34.60;76.20;;;;;;5090437;28;20044;-71
2022/08/03 13:00:29;;;;;;;7.97;1.90;;;34.60;74.40;;;;;;5089727;28;20406;-71
2022/08/03 13:03:12;;;;;;;11.93;2.13;;;34.50;74.80;;;;;;5089885;28;20473;-71
2022/08/03 13:05:45;;;;;;;10.23;2.00;;;34.50;74.90;;;;;;5089040;28;20426;-70
2022/08/03 13:08:22;;;;;;;8.47;1.90;;;34.60;74.10;;;;;;5077682;28;20394;-71
2022/08/03 13:10:48;;;;;;;9.88;2.33;;;34.50;73.90;;;;;;5087546;28;20482;-71
2022/08/03 13:13:14;;;;;;;10.32;2.30;;;34.40;73.20;;;;;;5079820;28;20127;-71
2022/08/03 13:15:40;;;;;;;6.47;1.73;;;34.50;73.20;;;;;;5088912;28;20036;-70
2022/08/03 13:18:05;;;;;;;11.25;2.08;;;34.70;73.20;;;;;;5071606;28;20072;-70
2022/08/03 13:20:31;;;;;;;17.48;2.85;;;34.80;73.60;;;;;;5071530;28;20039;-71
2022/08/03 13:22:57;;;;;;;9.00;1.85;;;35.10;73.00;;;;;;5080269;28;20034;-71
2022/08/03 13:25:23;;;;;;;10.93;2.00;;;35.10;72.50;;;;;;5077306;28;20489;-71
2022/08/03 13:27:49;;;;;;;11.73;1.73;;;35.20;72.20;;;;;;5090528;28;20044;-72
2022/08/03 13:30:15;;;;;;;8.13;1.73;;;35.30;72.80;;;;;;5088830;28;20520;-71
2022/08/03 13:32:41;;;;;;;12.65;2.08;;;35.50;71.30;;;;;;5079360;28;20388;-71
2022/08/03 13:35:08;;;;;;;7.82;1.50;;;35.60;71.80;;;;;;5075909;28;20498;-72
2022/08/03 13:37:34;;;;;;;11.93;2.20;;;35.70;70.40;;;;;;5079013;28;20042;-71
2022/08/03 13:40:00;;;;;;;;;;;35.70;67.70;;;;;;5090918;28;20044;-71
2022/08/03 13:42:27;;;;;;;8.93;1.73;;;35.70;68.90;;;;;;5090755;28;20015;-71
2022/08/03 13:44:53;;;;;;;8.48;2.30;;;35.80;67.30;;;;;;5090546;28;20044;-71
2022/08/03 13:47:19;;;;;;;8.83;1.63;;;35.90;68.00;;;;;;5089177;28;20450;-71
2022/08/03 13:49:45;;;;;;;6.75;1.30;;;35.80;64.70;;;;;;5090000;28;20056;-71
2022/08/03 13:52:11;;;;;;;8.52;1.33;;;35.70;65.30;;;;;;5089412;28;20044;-71
2022/08/03 13:54:36;;;;;;;8.07;1.48;;;35.80;64.60;;;;;;5089236;28;20044;-70
2022/08/03 13:57:02;;;;;;;8.90;1.67;;;35.80;64.90;;;;;;5090610;28;20051;-72
2022/08/03 13:59:27;;;;;;;6.72;1.70;;;36.00;65.00;;;;;;5089816;28;20033;-71
2022/08/03 14:01:53;;;;;;;8.07;1.40;;;36.00;63.30;;;;;;5090174;28;20078;-71
2022/08/03 14:04:19;;;;;;;7.75;1.75;;;36.00;64.70;;;;;;5088041;28;20493;-71
2022/08/03 14:06:45;;;;;;;9.60;1.90;;;35.90;62.50;;;;;;5089532;28;20429;-71